createdAt,value
2018-03-19T00:00:45.387Z,100419.86
2018-03-19T00:03:13.655Z,100415.58
2018-03-19T00:05:42.222Z,100414.20
2018-03-19T00:08:10.487Z,100417.34
2018-03-19T00:10:38.742Z,100416.45
2018-03-19T00:13:07.020Z,100412.95
2018-03-19T00:15:35.295Z,100422.69
2018-03-19T00:18:03.560Z,100414.00
2018-03-19T00:20:31.819Z,100413.31
2018-03-19T00:23:00.353Z,100408.14
2018-03-19T00:25:28.611Z,100413.25
2018-03-19T00:27:56.891Z,100408.98
2018-03-19T00:30:25.168Z,100408.17
2018-03-19T00:32:53.434Z,100408.35
2018-03-19T00:35:21.723Z,100414.86
2018-03-19T00:37:50.035Z,100411.98
2018-03-19T00:40:18.311Z,100411.66
2018-03-19T00:42:46.580Z,100407.38
2018-03-19T00:45:14.852Z,100411.66
2018-03-19T00:47:43.115Z,100416.78
2018-03-19T00:50:11.385Z,100410.82
2018-03-19T00:52:39.658Z,100405.42
2018-03-19T00:55:07.926Z,100410.56
2018-03-19T00:57:36.195Z,100415.53
2018-03-19T01:00:04.622Z,100411.95
2018-03-19T01:02:37.272Z,100410.37
2018-03-19T01:05:05.535Z,100409.11
2018-03-19T01:07:33.820Z,100412.73
2018-03-19T01:10:02.063Z,100405.02
2018-03-19T01:12:30.335Z,100404.78
2018-03-19T01:15:02.978Z,100403.69
2018-03-19T01:17:31.259Z,100407.86
2018-03-19T01:19:59.531Z,100408.06
2018-03-19T01:22:27.799Z,100409.27
2018-03-19T01:24:56.075Z,100407.25
2018-03-19T01:27:24.364Z,100406.44
2018-03-19T01:29:52.634Z,100415.53
2018-03-19T01:32:20.908Z,100409.59
2018-03-19T01:34:49.180Z,100411.85
2018-03-19T01:37:17.779Z,100417.86
2018-03-19T01:39:46.046Z,100414.84
2018-03-19T01:42:14.319Z,100405.88
2018-03-19T01:44:42.590Z,100401.05
2018-03-19T01:47:10.859Z,100408.77
2018-03-19T01:49:39.138Z,100403.70
2018-03-19T01:52:07.494Z,100402.33
2018-03-19T01:54:36.040Z,100406.16
2018-03-19T01:57:04.314Z,100403.48
2018-03-19T01:59:32.573Z,100402.48
2018-03-19T02:02:00.844Z,100408.72
2018-03-19T02:04:29.124Z,100401.91
2018-03-19T02:06:57.395Z,100403.96
2018-03-19T02:09:25.698Z,100394.78
2018-03-19T02:11:53.945Z,100396.56
2018-03-19T02:14:22.231Z,100391.45
2018-03-19T02:16:50.494Z,100389.87
2018-03-19T02:19:18.791Z,100396.39
2018-03-19T02:21:47.048Z,100387.41
2018-03-19T02:24:15.338Z,100387.16
2018-03-19T02:26:43.598Z,100382.77
2018-03-19T02:29:11.876Z,100386.44
2018-03-19T02:31:40.138Z,100390.51
2018-03-19T02:34:08.416Z,100396.53
2018-03-19T02:36:36.695Z,100398.52
2018-03-19T02:39:04.955Z,100399.83
2018-03-19T02:41:33.985Z,100391.64
2018-03-19T02:44:02.239Z,100389.84
2018-03-19T02:46:30.537Z,100396.11
2018-03-19T02:48:58.791Z,100402.66
2018-03-19T02:51:27.059Z,100396.77
2018-03-19T02:53:55.351Z,100394.73
2018-03-19T02:56:23.633Z,100398.48
2018-03-19T02:58:51.913Z,100401.34
2018-03-19T03:01:20.176Z,100392.86
2018-03-19T03:03:48.446Z,100387.98
2018-03-19T03:06:16.714Z,100396.08
2018-03-19T03:08:44.996Z,100396.69
2018-03-19T03:11:13.263Z,100400.42
2018-03-19T03:13:41.541Z,100398.50
2018-03-19T03:16:09.818Z,100397.50
2018-03-19T03:18:38.086Z,100400.19
2018-03-19T03:21:06.370Z,100397.94
2018-03-19T03:23:34.634Z,100404.86
2018-03-19T03:26:02.923Z,100404.09
2018-03-19T03:28:31.202Z,100404.16
2018-03-19T03:30:59.482Z,100407.03
2018-03-19T03:33:27.786Z,100414.67
2018-03-19T03:35:56.046Z,100415.39
2018-03-19T03:38:24.326Z,100411.09
2018-03-19T03:40:52.595Z,100402.73
2018-03-19T03:43:20.861Z,100410.74
2018-03-19T03:45:49.139Z,100411.59
2018-03-19T03:48:17.418Z,100412.22
2018-03-19T03:50:45.927Z,100407.41
2018-03-19T03:53:14.203Z,100423.92
2018-03-19T03:55:42.473Z,100412.24
2018-03-19T03:58:10.735Z,100403.81
2018-03-19T04:00:39.003Z,100419.97
2018-03-19T04:03:07.271Z,100423.30
2018-03-19T04:05:35.537Z,100429.97
2018-03-19T04:08:03.823Z,100434.81
2018-03-19T04:10:32.102Z,100429.60
2018-03-19T04:13:00.372Z,100429.67
2018-03-19T04:15:28.651Z,100435.52
2018-03-19T04:17:56.925Z,100443.31
2018-03-19T04:20:25.207Z,100435.69
2018-03-19T04:22:53.482Z,100439.55
2018-03-19T04:25:21.763Z,100439.19
2018-03-19T04:27:50.033Z,100424.55
2018-03-19T04:30:18.370Z,100431.19
2018-03-19T04:32:46.635Z,100435.61
2018-03-19T04:35:14.902Z,100438.61
2018-03-19T04:37:43.172Z,100434.77
2018-03-19T04:40:11.459Z,100440.39
2018-03-19T04:42:39.734Z,100435.27
2018-03-19T04:45:07.991Z,100438.09
2018-03-19T04:47:36.268Z,100432.67
2018-03-19T04:50:04.535Z,100433.73
2018-03-19T04:52:32.837Z,100434.08
2018-03-19T04:55:01.118Z,100434.22
2018-03-19T04:57:29.391Z,100433.74
2018-03-19T04:59:58.607Z,100435.78
2018-03-19T05:02:26.870Z,100441.30
2018-03-19T05:04:55.146Z,100442.64
2018-03-19T05:07:23.432Z,100442.05
2018-03-19T05:09:51.695Z,100435.77
2018-03-19T05:12:19.984Z,100440.34
2018-03-19T05:14:48.252Z,100445.99
2018-03-19T05:17:16.529Z,100433.98
2018-03-19T05:19:44.799Z,100436.69
2018-03-19T05:22:13.071Z,100441.31
2018-03-19T05:24:41.350Z,100437.11
2018-03-19T05:27:09.624Z,100451.14
2018-03-19T05:29:37.902Z,100447.89
2018-03-19T05:32:06.167Z,100450.23
2018-03-19T05:34:34.431Z,100457.56
2018-03-19T05:37:02.703Z,100458.14
2018-03-19T05:39:30.966Z,100460.47
2018-03-19T05:41:59.248Z,100460.83
2018-03-19T05:44:27.519Z,100459.17
2018-03-19T05:46:55.794Z,100460.48
2018-03-19T05:49:24.071Z,100460.55
2018-03-19T05:51:59.005Z,100456.81
2018-03-19T05:54:27.308Z,100459.78
2018-03-19T05:56:55.577Z,100460.94
2018-03-19T05:59:23.841Z,100459.74
2018-03-19T06:01:52.119Z,100467.03
2018-03-19T06:04:37.753Z,100466.45
2018-03-19T06:07:06.119Z,100478.27
2018-03-19T06:09:34.360Z,100480.06
2018-03-19T06:12:02.617Z,100480.95
2018-03-19T06:14:30.902Z,100473.81
2018-03-19T06:16:59.170Z,100480.91
2018-03-19T06:19:27.486Z,100474.93
2018-03-19T06:21:55.756Z,100483.01
2018-03-19T06:24:24.029Z,100483.95
2018-03-19T06:26:52.295Z,100484.41
2018-03-19T06:29:20.563Z,100487.55
2018-03-19T06:31:48.846Z,100486.04
2018-03-19T06:34:17.110Z,100484.37
2018-03-19T06:36:45.379Z,100490.29
2018-03-19T06:39:13.650Z,100487.00
2018-03-19T06:41:41.930Z,100495.57
2018-03-19T06:44:10.220Z,100504.88
2018-03-19T06:46:38.483Z,100498.92
2018-03-19T06:49:06.749Z,100503.27
2018-03-19T06:51:35.025Z,100510.12
2018-03-19T06:54:03.303Z,100513.89
2018-03-19T06:56:48.932Z,100517.39
2018-03-19T06:59:17.190Z,100508.64
2018-03-19T07:01:45.459Z,100515.55
2018-03-19T07:04:13.736Z,100519.98
2018-03-19T07:06:42.011Z,100514.97
2018-03-19T07:09:10.290Z,100526.97
2018-03-19T07:11:38.567Z,100518.55
2018-03-19T07:14:06.844Z,100522.30
2018-03-19T07:16:35.118Z,100528.41
2018-03-19T07:19:03.386Z,100525.95
2018-03-19T07:21:31.669Z,100529.28
2018-03-19T07:23:59.939Z,100527.28
2018-03-19T07:26:28.210Z,100526.45
2018-03-19T07:28:56.484Z,100532.80
2018-03-19T07:31:24.754Z,100524.20
2018-03-19T07:33:53.101Z,100530.27
2018-03-19T07:36:21.315Z,100530.59
2018-03-19T07:38:49.588Z,100526.58
2018-03-19T07:41:17.864Z,100537.23
2018-03-19T07:43:46.144Z,100534.30
2018-03-19T07:46:14.434Z,100540.42
2018-03-19T07:48:42.719Z,100536.63
2018-03-19T07:51:10.991Z,100535.17
2018-03-19T07:53:39.282Z,100533.78
2018-03-19T07:56:07.554Z,100537.66
2018-03-19T07:58:35.839Z,100538.10
2018-03-19T08:01:06.083Z,100545.73
2018-03-19T08:03:34.356Z,100542.22
2018-03-19T08:06:02.627Z,100538.75
2018-03-19T08:08:30.894Z,100534.61
2018-03-19T08:10:59.177Z,100537.91
2018-03-19T08:13:27.439Z,100535.39
2018-03-19T08:15:55.710Z,100539.76
2018-03-19T08:18:23.982Z,100534.11
2018-03-19T08:20:52.251Z,100532.84
2018-03-19T08:23:20.525Z,100532.64
2018-03-19T08:25:48.790Z,100538.81
2018-03-19T08:28:17.102Z,100535.78
2018-03-19T08:30:45.374Z,100538.86
2018-03-19T08:33:13.640Z,100533.08
2018-03-19T08:35:41.924Z,100527.38
2018-03-19T08:38:10.182Z,100533.83
2018-03-19T08:40:38.472Z,100534.94
2018-03-19T08:43:06.746Z,100536.09
2018-03-19T08:45:35.015Z,100529.37
2018-03-19T08:48:03.291Z,100529.89
2018-03-19T08:50:33.501Z,100533.88
2018-03-19T08:53:01.784Z,100528.87
2018-03-19T08:55:30.056Z,100525.78
2018-03-19T08:58:04.711Z,100529.63
2018-03-19T09:00:37.005Z,100526.22
2018-03-19T09:03:05.284Z,100522.06
2018-03-19T09:05:33.547Z,100525.35
2018-03-19T09:08:01.818Z,100526.76
2018-03-19T09:10:30.095Z,100537.48
2018-03-19T09:12:58.357Z,100531.80
2018-03-19T09:15:26.638Z,100525.73
2018-03-19T09:17:54.901Z,100539.22
2018-03-19T09:20:23.166Z,100536.55
2018-03-19T09:22:51.474Z,100534.98
2018-03-19T09:25:19.735Z,100541.14
2018-03-19T09:27:48.017Z,100535.87
2018-03-19T09:30:16.278Z,100541.02
2018-03-19T09:32:44.560Z,100551.53
2018-03-19T09:35:12.840Z,100548.27
2018-03-19T09:37:41.131Z,100539.85
2018-03-19T09:40:09.627Z,100553.00
2018-03-19T09:42:37.956Z,100547.20
2018-03-19T09:45:06.175Z,100546.20
2018-03-19T09:47:34.438Z,100551.39
2018-03-19T09:50:02.728Z,100552.99
2018-03-19T09:52:31.010Z,100557.23
2018-03-19T09:54:59.276Z,100554.83
2018-03-19T09:57:27.557Z,100557.21
2018-03-19T09:59:55.833Z,100559.25
2018-03-19T10:02:24.103Z,100559.27
2018-03-19T10:04:53.354Z,100557.81
2018-03-19T10:10:22.994Z,100563.41
2018-03-19T10:12:51.268Z,100562.14
2018-03-19T10:15:19.538Z,100565.47
2018-03-19T10:17:47.804Z,100563.33
2018-03-19T10:20:16.130Z,100567.38
2018-03-19T10:22:44.378Z,100571.64
2018-03-19T10:25:12.644Z,100567.27
2018-03-19T10:27:40.915Z,100568.80
2018-03-19T10:30:09.196Z,100575.64
2018-03-19T10:32:37.455Z,100580.15
2018-03-19T10:35:05.748Z,100582.33
2018-03-19T10:37:34.020Z,100586.45
2018-03-19T10:40:02.296Z,100592.94
2018-03-19T10:42:30.563Z,100587.17
2018-03-19T10:48:00.028Z,100590.64
2018-03-19T10:53:29.685Z,100579.51
2018-03-19T10:55:57.928Z,100587.06
2018-03-19T10:58:26.212Z,100584.16
2018-03-19T11:01:05.531Z,100578.22
2018-03-19T11:03:33.803Z,100574.02
2018-03-19T11:06:08.016Z,100567.86
2018-03-19T11:14:35.526Z,100551.50
2018-03-19T11:17:04.777Z,100554.72
2018-03-19T11:19:46.315Z,100557.14
2018-03-19T11:22:20.111Z,100544.65
2018-03-19T11:24:48.487Z,100549.95
2018-03-19T11:27:16.742Z,100548.23
2018-03-19T11:29:45.030Z,100555.36
2018-03-19T11:32:13.315Z,100554.06
2018-03-19T11:34:41.957Z,100542.69
2018-03-19T11:37:10.213Z,100536.84
2018-03-19T11:39:38.475Z,100546.91
2018-03-19T11:42:12.097Z,100547.84
2018-03-19T11:44:40.382Z,100541.36
2018-03-19T11:47:08.739Z,100538.64
2018-03-19T11:49:48.178Z,100535.83
2018-03-19T11:52:16.457Z,100541.28
2018-03-19T11:54:54.696Z,100536.68
2018-03-19T11:57:41.976Z,100543.03
2018-03-19T12:00:10.254Z,100534.80
2018-03-19T12:02:39.459Z,100536.02
2018-03-19T12:05:07.774Z,100533.26
2018-03-19T12:07:38.040Z,100530.46
2018-03-19T12:10:06.343Z,100540.58
2018-03-19T12:12:34.604Z,100530.05
2018-03-19T12:15:02.887Z,100524.64
2018-03-19T12:17:31.189Z,100522.61
2018-03-19T12:19:59.479Z,100519.74
2018-03-19T12:22:27.759Z,100520.73
2018-03-19T12:24:56.061Z,100513.03
2018-03-19T12:27:24.335Z,100512.31
2018-03-19T12:29:52.612Z,100502.53
2018-03-19T12:32:20.882Z,100500.19
2018-03-19T12:34:49.180Z,100500.16
2018-03-19T12:37:17.452Z,100503.52
2018-03-19T12:39:47.691Z,100500.41
2018-03-19T12:42:15.991Z,100488.37
2018-03-19T12:44:44.264Z,100483.08
2018-03-19T12:47:17.810Z,100494.52
2018-03-19T12:49:46.079Z,100477.08
2018-03-19T12:52:14.363Z,100485.18
2018-03-19T12:54:42.644Z,100480.70
2018-03-19T12:57:10.907Z,100480.72
2018-03-19T12:59:40.151Z,100480.09
2018-03-19T13:02:08.439Z,100482.57
2018-03-19T13:04:36.703Z,100473.29
2018-03-19T13:10:06.086Z,100464.32
2018-03-19T13:12:34.371Z,100468.93
2018-03-19T13:15:02.682Z,100474.84
2018-03-19T13:17:30.954Z,100461.36
2018-03-19T13:19:59.231Z,100473.58
2018-03-19T13:22:27.498Z,100469.12
2018-03-19T13:24:55.802Z,100466.12
2018-03-19T13:27:24.064Z,100473.52
2018-03-19T13:29:52.339Z,100478.56
2018-03-19T13:32:20.629Z,100478.89
2018-03-19T13:34:48.891Z,100476.03
2018-03-19T13:37:17.501Z,100476.81
2018-03-19T13:39:45.747Z,100477.45
2018-03-19T13:42:14.023Z,100475.19
2018-03-19T13:44:42.367Z,100472.02
2018-03-19T13:47:29.540Z,100468.30
2018-03-19T13:49:57.818Z,100467.91
2018-03-19T13:52:43.835Z,100478.74
2018-03-19T13:55:15.114Z,100470.58
2018-03-19T13:57:43.386Z,100466.58
2018-03-19T14:00:11.663Z,100471.41
2018-03-19T14:02:48.135Z,100464.88
2018-03-19T14:05:16.423Z,100463.96
2018-03-19T14:07:44.691Z,100461.36
2018-03-19T14:10:12.958Z,100460.84
2018-03-19T14:12:41.242Z,100455.38
2018-03-19T14:15:09.522Z,100453.14
2018-03-19T14:17:37.803Z,100451.23
2018-03-19T14:20:06.090Z,100452.87
2018-03-19T14:22:34.354Z,100442.59
2018-03-19T14:25:02.648Z,100448.22
2018-03-19T14:30:29.923Z,100442.88
2018-03-19T14:32:58.197Z,100450.03
2018-03-19T14:35:26.455Z,100447.39
2018-03-19T14:37:54.735Z,100435.67
2018-03-19T14:40:23.028Z,100440.30
2018-03-19T14:42:51.272Z,100431.92
2018-03-19T14:45:19.540Z,100431.19
2018-03-19T14:50:45.286Z,100429.93
2018-03-19T14:53:13.847Z,100415.44
2018-03-19T14:55:42.117Z,100414.80
2018-03-19T14:58:10.376Z,100420.10
2018-03-19T15:00:38.651Z,100408.17
2018-03-19T15:03:08.385Z,100406.37
2018-03-19T15:05:36.659Z,100410.62
2018-03-19T15:08:04.934Z,100406.13
2018-03-19T15:10:33.207Z,100416.44
2018-03-19T15:13:01.478Z,100411.30
2018-03-19T15:15:37.634Z,100418.11
2018-03-19T15:18:05.910Z,100409.84
2018-03-19T15:20:34.193Z,100404.98
2018-03-19T15:23:02.447Z,100405.78
2018-03-19T15:25:30.738Z,100407.84
2018-03-19T15:27:59.014Z,100400.48
2018-03-19T15:30:27.300Z,100409.48
2018-03-19T15:32:55.563Z,100398.08
2018-03-19T15:35:23.828Z,100404.81
2018-03-19T15:37:52.106Z,100402.23
2018-03-19T15:40:20.375Z,100401.22
2018-03-19T15:42:48.652Z,100399.48
2018-03-19T15:45:16.919Z,100402.38
2018-03-19T15:47:45.180Z,100405.57
2018-03-19T15:50:13.455Z,100403.98
2018-03-19T15:52:41.719Z,100406.75
2018-03-19T15:55:09.999Z,100404.55
2018-03-19T15:57:38.267Z,100411.63
2018-03-19T16:00:06.541Z,100423.73
2018-03-19T16:02:36.804Z,100419.04
2018-03-19T16:05:05.073Z,100417.15
2018-03-19T16:07:33.331Z,100422.81
2018-03-19T16:10:01.598Z,100418.27
2018-03-19T16:12:29.858Z,100429.09
2018-03-19T16:14:58.122Z,100435.41
2018-03-19T16:17:26.384Z,100429.94
2018-03-19T16:19:54.650Z,100426.69
2018-03-19T16:22:22.906Z,100439.53
2018-03-19T16:24:51.166Z,100433.26
2018-03-19T16:27:19.489Z,100432.45
2018-03-19T16:29:47.698Z,100432.10
2018-03-19T16:32:15.976Z,100438.61
2018-03-19T16:34:44.239Z,100443.19
2018-03-19T16:37:12.514Z,100448.95
2018-03-19T16:39:40.781Z,100455.66
2018-03-19T16:42:09.063Z,100459.03
2018-03-19T16:44:37.306Z,100460.85
2018-03-19T16:47:05.620Z,100467.63
2018-03-19T16:49:33.832Z,100475.30
2018-03-19T16:52:02.102Z,100477.87
2018-03-19T16:54:30.373Z,100483.09
2018-03-19T16:56:58.649Z,100486.64
2018-03-19T16:59:26.931Z,100489.31
2018-03-19T17:01:55.625Z,100489.59
2018-03-19T17:04:23.869Z,100495.98
2018-03-19T17:06:52.136Z,100500.85
2018-03-19T17:09:20.422Z,100504.06
2018-03-19T17:11:50.641Z,100510.57
2018-03-19T17:14:18.927Z,100508.51
2018-03-19T17:20:06.440Z,100515.57
2018-03-19T17:22:35.707Z,100521.55
2018-03-19T17:25:04.915Z,100523.05
2018-03-19T17:27:53.741Z,100519.08
2018-03-19T17:30:22.056Z,100530.82
2018-03-19T17:32:50.288Z,100534.94
2018-03-19T17:35:18.560Z,100535.34
2018-03-19T17:37:46.837Z,100538.27
2018-03-19T17:40:15.094Z,100542.81
2018-03-19T17:42:43.365Z,100551.33
2018-03-19T17:45:11.635Z,100552.33
2018-03-19T17:47:39.899Z,100555.09
2018-03-19T17:50:09.314Z,100552.06
2018-03-19T17:52:37.577Z,100562.02
2018-03-19T17:55:05.831Z,100565.20
2018-03-19T17:57:34.102Z,100574.81
2018-03-19T18:00:02.401Z,100576.73
2018-03-19T18:02:30.674Z,100581.30
2018-03-19T18:04:58.945Z,100588.10
2018-03-19T18:07:27.208Z,100591.24
2018-03-19T18:09:55.474Z,100598.45
2018-03-19T18:12:23.737Z,100605.45
2018-03-19T18:14:52.343Z,100608.64
2018-03-19T18:17:20.611Z,100616.67
2018-03-19T18:19:48.883Z,100620.04
2018-03-19T18:22:17.603Z,100619.28
2018-03-19T18:24:45.859Z,100627.30
2018-03-19T18:27:14.175Z,100631.25
2018-03-19T18:29:42.455Z,100636.55
2018-03-19T18:32:10.722Z,100636.87
2018-03-19T18:34:39.007Z,100648.59
2018-03-19T18:37:07.275Z,100648.02
2018-03-19T18:39:35.624Z,100654.95
2018-03-19T18:42:03.834Z,100658.30
2018-03-19T18:44:32.095Z,100664.30
2018-03-19T18:47:00.363Z,100664.60
2018-03-19T18:49:28.627Z,100671.81
2018-03-19T18:51:56.911Z,100673.09
2018-03-19T18:54:29.746Z,100675.42
2018-03-19T18:56:58.035Z,100684.32
2018-03-19T18:59:26.292Z,100677.77
2018-03-19T19:01:54.560Z,100679.03
2018-03-19T19:04:22.853Z,100686.00
2018-03-19T19:06:51.116Z,100683.22
2018-03-19T19:09:19.406Z,100697.61
2018-03-19T19:11:47.659Z,100701.73
2018-03-19T19:17:12.759Z,100701.13
2018-03-19T19:19:41.018Z,100706.62
2018-03-19T19:22:09.274Z,100701.96
2018-03-19T19:24:37.604Z,100717.73
2018-03-19T19:27:05.882Z,100717.12
2018-03-19T19:29:58.279Z,100720.59
2018-03-19T19:32:26.534Z,100730.61
2018-03-19T19:34:54.818Z,100725.72
2018-03-19T19:37:27.071Z,100733.31
2018-03-19T19:39:55.394Z,100736.61
2018-03-19T19:42:23.673Z,100737.89
2018-03-19T19:44:51.928Z,100742.78
2018-03-19T19:47:20.200Z,100747.05
2018-03-19T19:49:48.494Z,100740.91
2018-03-19T19:52:16.783Z,100760.26
2018-03-19T19:54:45.059Z,100760.94
2018-03-19T19:57:13.331Z,100766.92
2018-03-19T19:59:41.594Z,100765.33
2018-03-19T20:02:09.874Z,100770.27
2018-03-19T20:04:38.147Z,100771.85
2018-03-19T20:07:06.423Z,100770.05
2018-03-19T20:09:34.678Z,100776.81
2018-03-19T20:12:02.945Z,100781.55
2018-03-19T20:14:48.204Z,100788.23
2018-03-19T20:17:19.474Z,100788.30
2018-03-19T20:19:48.106Z,100793.31
2018-03-19T20:22:16.371Z,100796.45
2018-03-19T20:24:49.054Z,100804.02
2018-03-19T20:27:17.326Z,100801.48
2018-03-19T20:29:45.594Z,100801.82
2018-03-19T20:32:13.873Z,100802.97
2018-03-19T20:34:42.140Z,100809.16
2018-03-19T20:37:10.412Z,100809.97
2018-03-19T20:39:38.678Z,100809.09
2018-03-19T20:42:06.951Z,100813.33
2018-03-19T20:44:35.461Z,100815.69
2018-03-19T20:47:03.715Z,100821.34
2018-03-19T20:49:32.262Z,100819.13
2018-03-19T20:52:00.528Z,100828.90
2018-03-19T20:54:29.792Z,100824.14
2018-03-19T20:56:58.005Z,100825.80
2018-03-19T20:59:26.272Z,100836.27
2018-03-19T21:01:55.619Z,100831.80
2018-03-19T21:04:24.060Z,100839.39
2018-03-19T21:06:52.422Z,100844.04
2018-03-19T21:09:22.681Z,100844.09
2018-03-19T21:11:52.910Z,100849.16
2018-03-19T21:14:25.440Z,100847.72
2018-03-19T21:17:04.810Z,100848.83
2018-03-19T21:19:35.058Z,100843.29
2018-03-19T21:22:13.571Z,100857.84
2018-03-19T21:24:41.840Z,100859.67
2018-03-19T21:27:10.101Z,100857.55
2018-03-19T21:29:39.295Z,100863.03
2018-03-19T21:32:07.643Z,100865.08
2018-03-19T21:34:35.942Z,100878.27
2018-03-19T21:37:04.202Z,100881.66
2018-03-19T21:39:32.498Z,100886.26
2018-03-19T21:42:01.747Z,100882.34
2018-03-19T21:44:34.458Z,100890.28
2018-03-19T21:47:02.943Z,100890.42
2018-03-19T21:49:31.205Z,100892.62
2018-03-19T21:51:59.474Z,100896.00
2018-03-19T21:54:27.735Z,100889.38
2018-03-19T21:56:56.318Z,100896.83
2018-03-19T21:59:25.618Z,100899.61
2018-03-19T22:01:53.858Z,100904.27
2018-03-19T22:04:22.131Z,100901.75
2018-03-19T22:06:50.386Z,100902.78
2018-03-19T22:09:18.663Z,100904.16
2018-03-19T22:11:46.935Z,100907.56
2018-03-19T22:14:15.205Z,100908.05
2018-03-19T22:16:43.468Z,100908.16
2018-03-19T22:19:11.734Z,100913.49
2018-03-19T22:21:40.010Z,100907.05
2018-03-19T22:24:25.988Z,100909.95
2018-03-19T22:26:54.267Z,100911.20
2018-03-19T22:29:22.559Z,100908.77
2018-03-19T22:31:50.823Z,100917.74
2018-03-19T22:34:19.109Z,100920.30
2018-03-19T22:36:47.371Z,100919.91
2018-03-19T22:39:15.652Z,100918.62
2018-03-19T22:41:43.923Z,100912.85
2018-03-19T22:44:12.190Z,100918.25
2018-03-19T22:46:40.521Z,100909.04
2018-03-19T22:49:08.791Z,100906.52
2018-03-19T22:51:37.063Z,100913.80
2018-03-19T22:54:05.331Z,100904.39
2018-03-19T22:56:33.587Z,100900.34
2018-03-19T22:59:01.879Z,100899.80
2018-03-19T23:01:33.519Z,100899.80
2018-03-19T23:04:01.803Z,100905.36
2018-03-19T23:06:30.070Z,100903.27
2018-03-19T23:08:58.587Z,100905.53
2018-03-19T23:11:26.843Z,100910.22
2018-03-19T23:13:55.094Z,100903.81
2018-03-19T23:16:23.363Z,100906.65
2018-03-19T23:18:51.630Z,100912.61
2018-03-19T23:21:19.910Z,100916.19
2018-03-19T23:23:48.178Z,100915.34
2018-03-19T23:26:16.447Z,100913.66
2018-03-19T23:28:44.735Z,100912.78
2018-03-19T23:31:13.007Z,100916.93
2018-03-19T23:33:41.314Z,100926.66
2018-03-19T23:36:09.566Z,100923.39
2018-03-19T23:38:37.837Z,100917.50
2018-03-19T23:41:13.273Z,100916.20
2018-03-19T23:43:41.544Z,100910.38
2018-03-19T23:46:09.821Z,100916.99
2018-03-19T23:48:38.084Z,100914.11
2018-03-19T23:51:06.344Z,100914.34
2018-03-19T23:53:34.612Z,100918.61
2018-03-19T23:56:02.875Z,100921.61
2018-03-19T23:58:31.391Z,100924.13
